createdAt,value
2022-10-20T00:01:20.902Z,6.72
2022-10-20T00:03:48.568Z,7.50
2022-10-20T00:06:21.862Z,8.20
2022-10-20T00:08:49.576Z,7.80
2022-10-20T00:11:19.485Z,7.30
2022-10-20T00:13:48.626Z,7.15
2022-10-20T00:16:17.222Z,7.65
2022-10-20T00:18:45.232Z,7.32
2022-10-20T00:21:20.515Z,8.45
2022-10-20T00:23:48.267Z,6.97
2022-10-20T00:26:21.378Z,8.45
2022-10-20T00:28:49.224Z,8.48
2022-10-20T00:31:17.570Z,8.23
2022-10-20T00:33:45.318Z,9.00
2022-10-20T00:36:15.500Z,8.70
2022-10-20T00:38:43.370Z,8.02
2022-10-20T00:41:14.104Z,11.10
2022-10-20T00:43:47.140Z,7.63
2022-10-20T00:46:19.748Z,9.85
2022-10-20T00:48:50.360Z,9.52
2022-10-20T00:51:20.218Z,8.35
2022-10-20T00:53:50.950Z,8.38
2022-10-20T00:56:18.175Z,8.77
2022-10-20T00:58:45.898Z,9.63
2022-10-20T01:01:14.789Z,9.23
2022-10-20T01:03:47.773Z,8.85
2022-10-20T01:08:44.652Z,8.55
2022-10-20T01:11:14.899Z,7.80
2022-10-20T01:13:48.478Z,9.15
2022-10-20T01:16:30.936Z,9.05
2022-10-20T01:19:21.736Z,8.95
2022-10-20T01:22:07.573Z,8.98
2022-10-20T01:24:34.735Z,7.20
2022-10-20T01:27:24.031Z,8.93
2022-10-20T01:30:09.182Z,9.35
2022-10-20T01:33:09.862Z,9.40
2022-10-20T01:35:48.909Z,9.40
2022-10-20T01:38:18.780Z,10.18
2022-10-20T01:41:09.744Z,9.07
2022-10-20T01:43:39.278Z,9.38
2022-10-20T01:46:09.197Z,10.10
2022-10-20T01:48:38.758Z,9.82
2022-10-20T01:51:06.448Z,10.63
2022-10-20T01:53:33.709Z,10.02
2022-10-20T01:56:02.232Z,9.10
2022-10-20T01:58:29.373Z,9.88
2022-10-20T02:01:14.085Z,9.40
2022-10-20T02:03:56.142Z,8.15
2022-10-20T02:06:35.324Z,10.57
2022-10-20T02:09:06.706Z,9.73
2022-10-20T02:11:41.778Z,10.82
2022-10-20T02:14:12.555Z,9.70
2022-10-20T02:16:46.138Z,8.90
2022-10-20T02:19:16.358Z,10.93
2022-10-20T02:21:43.719Z,9.75
2022-10-20T02:24:12.736Z,10.73
2022-10-20T02:26:40.667Z,10.18
2022-10-20T02:29:17.253Z,10.73
2022-10-20T02:31:45.232Z,10.98
2022-10-20T02:34:13.085Z,9.32
2022-10-20T02:36:42.735Z,9.98
2022-10-20T02:39:10.631Z,9.80
2022-10-20T02:41:38.397Z,10.45
2022-10-20T02:44:05.779Z,10.63
2022-10-20T02:46:33.028Z,9.80
2022-10-20T02:49:00.280Z,10.68
2022-10-20T02:51:27.434Z,12.82
2022-10-20T02:53:54.994Z,12.15
2022-10-20T02:56:24.482Z,10.75
2022-10-20T02:58:54.392Z,11.73
2022-10-20T03:01:22.612Z,11.25
2022-10-20T03:03:49.800Z,10.85
2022-10-20T03:06:17.176Z,10.30
2022-10-20T03:08:44.482Z,10.20
2022-10-20T03:11:11.764Z,11.52
2022-10-20T03:13:38.995Z,11.77
2022-10-20T03:16:06.494Z,10.73
2022-10-20T03:18:33.779Z,11.15
2022-10-20T03:21:01.120Z,10.18
2022-10-20T03:23:28.354Z,10.05
2022-10-20T03:26:05.004Z,8.73
2022-10-20T03:28:32.557Z,11.00
2022-10-20T03:31:00.079Z,11.45
2022-10-20T03:33:27.445Z,10.15
2022-10-20T03:35:54.656Z,11.00
2022-10-20T03:38:22.182Z,12.00
2022-10-20T03:40:49.547Z,11.55
2022-10-20T03:43:16.915Z,11.30
2022-10-20T03:45:44.332Z,8.75
2022-10-20T03:48:12.279Z,9.98
2022-10-20T03:50:41.086Z,10.20
2022-10-20T03:53:11.910Z,10.10
2022-10-20T03:55:39.177Z,9.45
2022-10-20T03:58:06.399Z,10.95
2022-10-20T04:00:33.604Z,8.68
2022-10-20T04:03:00.831Z,10.10
2022-10-20T04:05:28.085Z,10.00
2022-10-20T04:07:55.337Z,10.30
2022-10-20T04:10:22.587Z,8.95
2022-10-20T04:12:50.090Z,9.77
2022-10-20T04:15:18.639Z,10.02
2022-10-20T04:17:45.840Z,10.18
2022-10-20T04:20:12.998Z,10.65
2022-10-20T04:22:40.719Z,9.80
2022-10-20T04:25:08.487Z,9.90
2022-10-20T04:27:35.939Z,8.90
2022-10-20T04:30:03.544Z,10.15
2022-10-20T04:32:30.738Z,10.00
2022-10-20T04:34:57.961Z,8.15
2022-10-20T04:37:25.167Z,8.40
2022-10-20T04:39:52.406Z,8.68
2022-10-20T04:42:20.266Z,10.30
2022-10-20T04:44:47.511Z,10.23
2022-10-20T04:47:14.864Z,9.45
2022-10-20T04:49:42.221Z,9.05
2022-10-20T04:52:09.469Z,9.77
2022-10-20T04:54:36.685Z,10.00
2022-10-20T04:57:06.103Z,10.23
2022-10-20T04:59:33.342Z,10.25
2022-10-20T05:02:00.564Z,10.07
2022-10-20T05:04:27.789Z,9.50
2022-10-20T05:06:54.956Z,9.48
2022-10-20T05:09:22.106Z,10.93
2022-10-20T05:11:49.384Z,11.27
2022-10-20T05:14:16.698Z,12.25
2022-10-20T05:16:43.918Z,11.30
2022-10-20T05:19:11.538Z,10.10
2022-10-20T05:21:39.201Z,9.98
2022-10-20T05:24:06.711Z,10.88
2022-10-20T05:26:37.168Z,10.93
2022-10-20T05:29:06.864Z,11.57
2022-10-20T05:31:37.954Z,11.75
2022-10-20T05:34:05.283Z,11.05
2022-10-20T05:36:32.652Z,12.43
2022-10-20T05:38:59.915Z,11.02
2022-10-20T05:41:32.127Z,10.88
2022-10-20T05:44:04.710Z,10.65
2022-10-20T05:46:34.454Z,10.73
2022-10-20T05:49:03.327Z,11.65
2022-10-20T05:51:33.870Z,11.75
2022-10-20T05:54:01.119Z,12.07
2022-10-20T05:56:30.366Z,11.32
2022-10-20T05:58:58.414Z,11.23
2022-10-20T06:01:40.107Z,12.18
2022-10-20T06:04:08.777Z,10.52
2022-10-20T06:06:36.362Z,11.57
2022-10-20T06:09:07.653Z,11.52
2022-10-20T06:11:39.264Z,11.40
2022-10-20T06:14:08.380Z,10.32
2022-10-20T06:16:36.047Z,10.57
2022-10-20T06:19:03.931Z,10.40
2022-10-20T06:21:33.244Z,8.80
2022-10-20T06:24:02.054Z,11.65
2022-10-20T06:26:32.787Z,13.05
2022-10-20T06:29:04.357Z,10.85
2022-10-20T06:31:40.452Z,12.55
2022-10-20T06:34:10.024Z,12.20
2022-10-20T06:36:38.465Z,12.55
2022-10-20T06:39:08.593Z,12.05
2022-10-20T06:41:36.134Z,11.95
2022-10-20T06:44:03.646Z,12.23
2022-10-20T06:46:33.443Z,12.05
2022-10-20T06:49:01.935Z,12.25
2022-10-20T06:51:29.559Z,10.60
2022-10-20T06:53:56.984Z,11.25
2022-10-20T06:56:25.847Z,12.20
2022-10-20T06:58:54.712Z,10.55
2022-10-20T07:01:26.236Z,12.27
2022-10-20T07:03:55.990Z,11.50
2022-10-20T07:06:26.320Z,15.32
2022-10-20T07:08:54.522Z,13.40
2022-10-20T07:11:23.844Z,12.73
2022-10-20T07:13:51.515Z,10.63
2022-10-20T07:16:25.539Z,12.25
2022-10-20T07:18:53.147Z,10.88
2022-10-20T07:21:23.491Z,11.82
2022-10-20T07:23:52.071Z,11.63
2022-10-20T07:26:39.498Z,10.05
2022-10-20T07:29:07.132Z,10.45
2022-10-20T07:31:37.553Z,10.93
2022-10-20T07:34:20.435Z,9.77
2022-10-20T07:36:52.337Z,11.95
2022-10-20T07:39:19.605Z,10.18
2022-10-20T07:41:48.234Z,9.68
2022-10-20T07:44:16.749Z,10.68
2022-10-20T07:46:44.367Z,10.75
2022-10-20T07:49:42.330Z,12.43
2022-10-20T07:51:59.328Z,13.73
2022-10-20T07:54:26.557Z,13.23
2022-10-20T07:56:53.871Z,15.15
2022-10-20T07:59:21.326Z,14.88
2022-10-20T08:01:48.740Z,15.25
2022-10-20T08:04:16.056Z,13.55
2022-10-20T08:06:43.300Z,14.00
2022-10-20T08:09:11.035Z,14.93
2022-10-20T08:11:38.273Z,14.07
2022-10-20T08:14:05.489Z,14.82
2022-10-20T08:16:36.539Z,12.40
2022-10-20T08:19:06.755Z,12.18
2022-10-20T08:21:34.252Z,11.25
2022-10-20T08:24:02.840Z,9.77
2022-10-20T08:26:30.040Z,7.43
2022-10-20T08:28:57.320Z,11.88
2022-10-20T08:31:24.766Z,8.52
2022-10-20T08:33:53.115Z,8.27
2022-10-20T08:36:21.089Z,6.95
2022-10-20T08:38:49.033Z,9.27
2022-10-20T08:41:19.851Z,8.93
2022-10-20T08:43:50.596Z,7.25
2022-10-20T08:46:20.930Z,5.80
2022-10-20T08:48:48.936Z,8.32
2022-10-20T08:51:25.570Z,7.90
2022-10-20T08:53:57.475Z,7.05
2022-10-20T08:56:30.897Z,7.57
2022-10-20T08:58:58.494Z,7.10
2022-10-20T09:01:33.877Z,7.22
2022-10-20T09:04:16.017Z,6.40
2022-10-20T09:06:45.152Z,6.18
2022-10-20T09:09:18.532Z,6.32
2022-10-20T09:11:46.189Z,5.30
2022-10-20T09:14:13.899Z,6.10
2022-10-20T09:16:59.209Z,5.85
2022-10-20T09:19:28.245Z,7.25
2022-10-20T09:21:58.674Z,16.13
2022-10-20T09:24:30.287Z,20.25
2022-10-20T09:27:16.016Z,16.20
2022-10-20T09:29:43.392Z,13.32
2022-10-20T09:35:20.991Z,11.13
2022-10-20T09:37:56.886Z,13.48
2022-10-20T09:40:26.367Z,13.32
2022-10-20T09:43:03.224Z,10.07
2022-10-20T09:45:32.581Z,9.30
2022-10-20T09:48:22.853Z,7.32
2022-10-20T09:50:56.224Z,5.40
2022-10-20T09:53:37.352Z,4.82
2022-10-20T09:56:04.897Z,4.00
2022-10-20T09:58:35.003Z,3.47
2022-10-20T10:01:03.842Z,3.38
2022-10-20T10:03:40.478Z,3.40
2022-10-20T10:06:42.162Z,2.85
2022-10-20T10:09:35.287Z,3.42
2022-10-20T10:12:14.572Z,12.35
2022-10-20T10:14:52.854Z,17.83
2022-10-20T10:17:34.208Z,9.07
2022-10-20T10:20:05.492Z,14.65
2022-10-20T10:22:33.637Z,12.93
2022-10-20T10:25:02.311Z,10.80
2022-10-20T10:27:32.305Z,9.63
2022-10-20T10:30:27.891Z,7.40
2022-10-20T10:32:55.670Z,5.90
2022-10-20T10:35:32.112Z,6.13
2022-10-20T10:38:00.313Z,4.05
2022-10-20T10:40:55.594Z,4.30
2022-10-20T10:43:38.473Z,3.58
2022-10-20T10:46:08.630Z,4.00
2022-10-20T10:49:00.790Z,4.85
2022-10-20T10:51:39.935Z,6.40
2022-10-20T10:54:41.544Z,7.90
2022-10-20T10:57:36.767Z,6.70
2022-10-20T11:00:14.201Z,5.18
2022-10-20T11:02:47.456Z,5.22
2022-10-20T11:07:51.194Z,2.25
2022-10-20T11:10:24.227Z,3.13
2022-10-20T11:13:12.282Z,2.45
2022-10-20T11:16:11.123Z,3.53
2022-10-20T11:18:56.796Z,2.90
2022-10-20T11:21:33.137Z,2.22
2022-10-20T11:24:16.218Z,2.70
2022-10-20T11:26:52.256Z,1.98
2022-10-20T11:29:28.979Z,1.63
2022-10-20T11:32:20.087Z,1.98
2022-10-20T11:35:08.117Z,1.77
2022-10-20T11:37:45.496Z,1.88
2022-10-20T11:40:16.431Z,1.52
2022-10-20T11:43:11.221Z,1.75
2022-10-20T11:45:55.942Z,1.80
2022-10-20T11:48:51.728Z,1.58
2022-10-20T11:51:31.213Z,1.48
2022-10-20T11:54:16.619Z,1.48
2022-10-20T11:56:56.211Z,1.10
2022-10-20T11:59:43.976Z,1.30
2022-10-20T12:02:29.624Z,1.15
2022-10-20T12:05:12.321Z,1.50
2022-10-20T12:08:30.667Z,0.93
2022-10-20T12:11:16.254Z,1.00
2022-10-20T12:13:58.308Z,1.42
2022-10-20T12:16:53.870Z,1.10
2022-10-20T12:19:35.865Z,1.17
2022-10-20T12:22:25.994Z,1.10
2022-10-20T12:24:53.055Z,1.05
2022-10-20T12:27:25.355Z,0.95
2022-10-20T12:29:55.554Z,1.58
2022-10-20T12:32:25.408Z,1.40
2022-10-20T12:35:11.478Z,1.05
2022-10-20T12:37:42.235Z,1.10
2022-10-20T12:40:11.942Z,1.50
2022-10-20T12:42:46.542Z,1.52
2022-10-20T12:47:50.884Z,8.05
2022-10-20T12:50:46.995Z,2.08
2022-10-20T12:53:19.455Z,46.70
2022-10-20T12:56:06.840Z,51.15
2022-10-20T12:58:36.943Z,31.13
2022-10-20T13:01:10.431Z,23.45
2022-10-20T13:03:43.749Z,20.20
2022-10-20T13:06:23.144Z,8.98
2022-10-20T13:09:10.467Z,5.95
2022-10-20T13:11:37.827Z,4.13
2022-10-20T13:14:33.162Z,6.47
2022-10-20T13:17:19.846Z,1.95
2022-10-20T13:20:00.394Z,1.63
2022-10-20T13:22:51.325Z,1.50
2022-10-20T13:25:33.623Z,1.05
2022-10-20T13:28:14.700Z,1.08
2022-10-20T13:31:12.167Z,1.45
2022-10-20T13:34:03.213Z,1.00
2022-10-20T13:36:49.522Z,1.20
2022-10-20T13:39:28.542Z,0.70
2022-10-20T13:42:25.496Z,0.70
2022-10-20T13:44:58.217Z,0.60
2022-10-20T13:47:31.071Z,0.50
2022-10-20T13:50:09.329Z,0.50
2022-10-20T13:52:42.026Z,0.43
2022-10-20T13:55:18.260Z,0.30
2022-10-20T13:57:55.285Z,0.45
2022-10-20T14:00:36.287Z,0.60
2022-10-20T14:03:15.550Z,0.40
2022-10-20T14:05:42.805Z,0.50
2022-10-20T14:08:11.910Z,0.40
2022-10-20T14:10:43.366Z,0.45
2022-10-20T14:13:14.666Z,0.60
2022-10-20T14:15:47.498Z,0.70
2022-10-20T14:18:27.111Z,0.63
2022-10-20T14:21:03.048Z,0.65
2022-10-20T14:23:38.246Z,0.70
2022-10-20T14:26:11.574Z,1.23
2022-10-20T14:28:40.346Z,0.50
2022-10-20T14:31:10.231Z,0.60
2022-10-20T14:33:45.053Z,0.35
2022-10-20T14:36:29.474Z,0.70
2022-10-20T14:39:00.636Z,4.60
2022-10-20T14:41:31.276Z,2.00
2022-10-20T14:44:06.516Z,3.72
2022-10-20T14:46:47.145Z,9.25
2022-10-20T14:49:17.435Z,10.52
2022-10-20T14:51:56.958Z,1.40
2022-10-20T14:54:37.734Z,0.80
2022-10-20T14:57:08.237Z,5.55
2022-10-20T14:59:38.462Z,12.48
2022-10-20T15:02:10.385Z,6.60
2022-10-20T15:04:40.217Z,1.25
2022-10-20T15:07:42.935Z,0.50
2022-10-20T15:10:15.853Z,0.90
2022-10-20T15:12:45.299Z,0.32
2022-10-20T15:15:12.437Z,0.50
2022-10-20T15:17:47.408Z,0.50
2022-10-20T15:20:32.767Z,0.35
2022-10-20T15:23:03.107Z,0.40
2022-10-20T15:25:50.479Z,0.45
2022-10-20T15:28:43.114Z,0.35
2022-10-20T15:31:13.490Z,0.57
2022-10-20T15:33:41.491Z,0.70
2022-10-20T15:36:20.463Z,1.10
2022-10-20T15:38:51.394Z,0.50
2022-10-20T15:41:21.133Z,0.60
2022-10-20T15:43:48.670Z,0.60
2022-10-20T15:46:17.199Z,0.60
2022-10-20T15:48:45.398Z,1.00
2022-10-20T15:51:17.847Z,5.32
2022-10-20T15:53:47.204Z,2.10
2022-10-20T15:56:14.688Z,1.30
2022-10-20T15:58:41.938Z,2.80
2022-10-20T16:01:13.699Z,3.80
2022-10-20T16:03:43.405Z,4.10
2022-10-20T16:06:13.811Z,1.50
2022-10-20T16:08:42.453Z,1.75
2022-10-20T16:11:10.238Z,1.25
2022-10-20T16:13:38.590Z,1.00
2022-10-20T16:16:12.634Z,0.77
2022-10-20T16:18:39.986Z,1.00
2022-10-20T16:21:08.128Z,0.90
2022-10-20T16:23:40.631Z,1.00
2022-10-20T16:26:12.784Z,1.13
2022-10-20T16:28:40.158Z,0.77
2022-10-20T16:31:12.421Z,0.90
2022-10-20T16:33:39.808Z,0.90
2022-10-20T16:36:09.660Z,1.10
2022-10-20T16:38:40.097Z,0.82
2022-10-20T16:41:13.592Z,0.93
2022-10-20T16:43:46.195Z,1.80
2022-10-20T16:46:15.124Z,1.00
2022-10-20T16:48:47.843Z,0.45
2022-10-20T16:51:16.821Z,0.40
2022-10-20T16:53:44.324Z,1.20
2022-10-20T16:56:15.333Z,2.08
2022-10-20T16:58:45.934Z,2.40
2022-10-20T17:01:15.944Z,0.90
2022-10-20T17:03:48.993Z,1.00
2022-10-20T17:06:18.818Z,1.08
2022-10-20T17:08:46.722Z,1.83
2022-10-20T17:11:20.034Z,1.42
2022-10-20T17:13:47.547Z,1.77
2022-10-20T17:16:28.587Z,1.38
2022-10-20T17:18:57.636Z,0.77
2022-10-20T17:21:25.424Z,0.70
2022-10-20T17:23:52.683Z,0.75
2022-10-20T17:26:22.283Z,0.50
2022-10-20T17:28:50.244Z,0.70
2022-10-20T17:31:18.485Z,0.60
2022-10-20T17:33:46.566Z,0.60
2022-10-20T17:36:14.533Z,1.23
2022-10-20T17:38:42.822Z,0.70
2022-10-20T17:41:13.580Z,0.60
2022-10-20T17:43:41.386Z,0.73
2022-10-20T17:46:13.662Z,0.50
2022-10-20T17:48:41.421Z,0.80
2022-10-20T17:51:15.279Z,0.85
2022-10-20T17:53:45.639Z,0.63
2022-10-20T17:56:15.691Z,0.73
2022-10-20T17:58:44.383Z,0.90
2022-10-20T18:01:23.717Z,2.78
2022-10-20T18:03:56.645Z,3.47
2022-10-20T18:06:27.069Z,7.65
2022-10-20T18:08:58.778Z,8.98
2022-10-20T18:11:28.179Z,7.47
2022-10-20T18:13:57.626Z,5.47
2022-10-20T18:16:25.228Z,2.70
2022-10-20T18:18:53.012Z,2.42
2022-10-20T18:21:20.879Z,4.10
2022-10-20T18:23:48.496Z,4.40
2022-10-20T18:26:19.109Z,10.38
2022-10-20T18:28:48.517Z,17.63
2022-10-20T18:31:22.660Z,21.75
2022-10-20T18:33:54.254Z,27.80
2022-10-20T18:36:21.577Z,30.88
2022-10-20T18:38:49.027Z,27.92
2022-10-20T18:41:19.965Z,20.15
2022-10-20T18:43:56.911Z,15.35
2022-10-20T18:46:26.980Z,11.40
2022-10-20T18:48:54.841Z,10.68
2022-10-20T18:51:22.628Z,11.23
2022-10-20T18:53:53.646Z,13.48
2022-10-20T18:56:22.607Z,12.93
2022-10-20T18:58:53.663Z,9.38
2022-10-20T19:01:23.394Z,7.93
2022-10-20T19:03:53.325Z,8.23
2022-10-20T19:06:32.631Z,12.18
2022-10-20T19:09:09.391Z,13.95
2022-10-20T19:11:39.414Z,13.48
2022-10-20T19:14:09.723Z,13.65
2022-10-20T19:16:37.466Z,13.65
2022-10-20T19:19:07.262Z,15.07
2022-10-20T19:21:34.873Z,13.60
2022-10-20T19:24:14.933Z,10.77
2022-10-20T19:26:52.679Z,8.43
2022-10-20T19:29:30.323Z,7.63
2022-10-20T19:32:00.101Z,4.35
2022-10-20T19:34:31.138Z,16.52
2022-10-20T19:36:58.625Z,17.90
2022-10-20T19:39:32.048Z,14.95
2022-10-20T19:42:01.698Z,12.55
2022-10-20T19:44:29.487Z,11.70
2022-10-20T19:46:57.211Z,10.40
2022-10-20T19:49:24.965Z,7.22
2022-10-20T19:51:52.682Z,4.63
2022-10-20T19:54:20.103Z,3.92
2022-10-20T19:56:47.510Z,3.20
2022-10-20T19:59:14.811Z,4.13
2022-10-20T20:01:42.136Z,4.15
2022-10-20T20:04:10.915Z,3.15
2022-10-20T20:06:38.530Z,2.13
2022-10-20T20:09:08.888Z,2.25
2022-10-20T20:11:37.919Z,2.80
2022-10-20T20:14:08.914Z,5.72
2022-10-20T20:16:36.433Z,15.52
2022-10-20T20:19:04.304Z,19.23
2022-10-20T20:21:31.714Z,17.27
2022-10-20T20:24:02.024Z,13.07
2022-10-20T20:26:30.885Z,12.57
2022-10-20T20:28:58.957Z,31.65
2022-10-20T20:31:27.496Z,28.40
2022-10-20T20:33:56.788Z,15.80
2022-10-20T20:36:27.166Z,10.88
2022-10-20T20:38:59.420Z,7.95
2022-10-20T20:41:33.059Z,6.68
2022-10-20T20:44:05.417Z,5.40
2022-10-20T20:46:36.424Z,5.75
2022-10-20T20:49:04.046Z,3.72
2022-10-20T20:51:33.935Z,3.63
2022-10-20T20:54:02.482Z,3.30
2022-10-20T20:56:30.153Z,4.47
2022-10-20T20:58:57.583Z,3.63
2022-10-20T21:01:32.019Z,5.25
2022-10-20T21:04:04.576Z,4.00
2022-10-20T21:06:56.528Z,7.22
2022-10-20T21:09:20.284Z,5.47
2022-10-20T21:11:49.183Z,4.93
2022-10-20T21:14:16.676Z,9.75
2022-10-20T21:16:44.170Z,13.43
2022-10-20T21:19:11.963Z,11.70
2022-10-20T21:21:47.221Z,22.77
2022-10-20T21:24:14.863Z,31.40
2022-10-20T21:26:42.322Z,24.40
2022-10-20T21:29:10.307Z,30.65
2022-10-20T21:31:39.486Z,20.48
2022-10-20T21:34:07.089Z,25.38
2022-10-20T21:36:36.302Z,25.85
2022-10-20T21:39:05.879Z,33.03
2022-10-20T21:41:34.934Z,42.72
2022-10-20T21:44:04.076Z,38.97
2022-10-20T21:46:42.079Z,32.30
2022-10-20T21:49:14.940Z,31.35
2022-10-20T21:51:45.584Z,30.48
2022-10-20T21:54:19.186Z,23.75
2022-10-20T21:56:49.185Z,21.02
2022-10-20T21:59:26.113Z,21.58
2022-10-20T22:01:55.888Z,20.58
2022-10-20T22:04:25.571Z,18.85
2022-10-20T22:06:53.771Z,16.95
2022-10-20T22:09:21.391Z,17.80
2022-10-20T22:11:59.149Z,17.45
2022-10-20T22:14:26.646Z,15.73
2022-10-20T22:16:55.681Z,14.85
2022-10-20T22:19:24.576Z,14.38
2022-10-20T22:21:53.453Z,11.50
2022-10-20T22:24:21.823Z,11.27
2022-10-20T22:26:51.776Z,9.40
2022-10-20T22:29:20.859Z,9.63
2022-10-20T22:31:48.424Z,8.27
2022-10-20T22:34:15.935Z,7.70
2022-10-20T22:36:44.542Z,6.65
2022-10-20T22:41:44.914Z,4.47
2022-10-20T22:44:12.211Z,4.78
2022-10-20T22:46:39.621Z,4.40
2022-10-20T22:49:07.053Z,3.28
2022-10-20T22:51:34.384Z,3.35
2022-10-20T22:54:01.700Z,4.70
2022-10-20T22:56:29.059Z,4.15
2022-10-20T22:58:56.460Z,2.95
2022-10-20T23:01:24.366Z,3.47
2022-10-20T23:03:52.178Z,4.10
2022-10-20T23:06:23.065Z,3.63
2022-10-20T23:08:52.790Z,3.20
2022-10-20T23:11:21.137Z,3.33
2022-10-20T23:13:50.021Z,3.55
2022-10-20T23:16:17.600Z,3.70
2022-10-20T23:18:45.300Z,4.57
2022-10-20T23:21:13.248Z,4.93
2022-10-20T23:23:40.984Z,3.50
2022-10-20T23:26:09.088Z,3.17
2022-10-20T23:28:38.138Z,3.88
2022-10-20T23:31:17.233Z,3.50
2022-10-20T23:33:46.185Z,3.60
2022-10-20T23:36:14.896Z,3.75
2022-10-20T23:38:43.113Z,2.92
2022-10-20T23:41:10.839Z,3.40
2022-10-20T23:43:38.139Z,2.50
2022-10-20T23:46:06.155Z,3.45
2022-10-20T23:48:34.080Z,5.05
2022-10-20T23:51:01.845Z,5.13
2022-10-20T23:53:29.372Z,3.65
2022-10-20T23:55:56.712Z,3.20
2022-10-20T23:58:24.332Z,3.85
